Terminal Aerodrome Forecast
Issued by NWS

Home | Current Version | Previous Version | Text Only | Print | Product List | Glossary On
Versions: 1 2 3 4 5 6 7 8 9 10 11 12 13 14 15
000
FTUS43 KICT 231500 AAB
TAFSLN
TAF AMD
KSLN 231524Z 2315/2412 09015G21KT P6SM VCSH SCT080 BKN250
     FM231700 03011KT P6SM SCT250
     FM240200 13005KT P6SM SCT250=

USA.gov is the U.S. government's official web portal to all federal, state and local government web resources and services.